Villa North, Indiana
Current Conditions -  °F | °C
As of 1:15 PM on Wednesday 28 Jan 2015 (Local Time) from KHHG Reporting Station
Clear Clear  
Wind Chill: 19°   Ceiling: Unl
Heat Index: 26°   Visibility: 10mi
Dew Point: 10°   Wind: 6mph
Humidity: 52%   Direction: 170°S
Pressure: 30.28"   Gusts: NA
Location:  40.7175°N, 85.1549°W
Report Text: KHHG 281815Z AUTO 17005KT 10SM CLR M03/M12 A3028 RMK AO2 T10341121
Loading
Personal Weather Stations






























Interactive Weather Map New forecast layout! Learn more

10-Day Weather Forecast

Advertisements
Track Severe Weather on mobile